Aurora, Kansas
Current Conditions -  °F | °C
As of 11:55 AM on Thursday 27 Nov 2014 (Local Time) from KCNK Reporting Station
Clear Clear  
Wind Chill: 25°   Ceiling: Unl
Heat Index: 33°   Visibility: 10mi
Dew Point: 17°   Wind: 10mph
Humidity: 52%   Direction: 160°SSE
Pressure: 30.41"   Gusts: NA
Location:  39.45°N, 97.53°W
Report Text: KCNK 271755Z AUTO 16009KT 10SM CLR 01/M08 A3041 RMK AO2 SLP314 T00061083 10006 21100 58026
Loading
Personal Weather Stations






























Interactive Weather Map New forecast layout! Learn more

10-Day Weather Forecast

Advertisements
Track Severe Weather on mobile